Time;durP1;ratioP1;P1;durP2;ratioP2;P2;SDS_P1;SDS_P2;PMS_P1;PMS_P2;Temp;Humidity;BMP_temperature;BMP_pressure;BME280_temperature;BME280_humidity;BME280_pressure;Samples;Min_cycle;Max_cycle;Signal;HPM_P1;HPM_P2
2023/01/21 00:01:19;;;;;;;23.80;13.23;;;1.00;78.60;;;;;;5005716;28;20090;-82
2023/01/21 00:03:45;;;;;;;24.93;14.40;;;1.00;78.60;;;;;;5055124;28;20041;-82
2023/01/21 00:06:13;;;;;;;26.77;14.63;;;1.00;78.60;;;;;;5037450;28;20056;-80
2023/01/21 00:08:39;;;;;;;27.43;15.57;;;1.00;78.70;;;;;;5038373;28;20044;-79
2023/01/21 00:11:07;;;;;;;25.80;14.63;;;1.00;78.70;;;;;;5037727;28;20033;-78
2023/01/21 00:13:34;;;;;;;24.80;14.90;;;1.50;79.00;;;;;;5054201;28;20040;-78
2023/01/21 00:16:00;;;;;;;33.90;18.77;;;1.00;78.70;;;;;;5037780;28;20496;-78
2023/01/21 00:18:26;;;;;;;27.07;14.90;;;1.10;78.70;;;;;;5037658;28;20222;-78
2023/01/21 00:20:52;;;;;;;26.63;16.10;;;1.00;78.50;;;;;;5017918;28;20060;-78
2023/01/21 00:23:17;;;;;;;25.50;16.00;;;1.00;78.50;;;;;;5047560;28;20033;-78
2023/01/21 00:25:43;;;;;;;27.87;16.10;;;1.00;78.50;;;;;;5021171;28;20037;-78
2023/01/21 00:28:09;;;;;;;31.30;16.83;;;1.00;78.40;;;;;;5021258;28;20040;-78
2023/01/21 00:30:35;;;;;;;24.13;15.00;;;0.90;78.30;;;;;;5037070;28;20519;-79
2023/01/21 00:33:02;;;;;;;29.10;17.00;;;0.90;78.20;;;;;;5037493;28;20049;-78
2023/01/21 00:35:27;;;;;;;27.23;16.10;;;0.90;78.30;;;;;;5037398;28;20462;-79
2023/01/21 00:37:53;;;;;;;28.77;15.90;;;0.90;78.30;;;;;;5054201;28;20123;-79
2023/01/21 00:40:19;;;;;;;30.30;17.17;;;0.90;78.40;;;;;;5004588;28;20036;-79
2023/01/21 00:42:45;;;;;;;32.27;17.30;;;0.90;78.40;;;;;;5017677;28;20037;-79
2023/01/21 00:45:10;;;;;;;35.57;19.83;;;0.90;78.30;;;;;;5012045;28;20056;-79
2023/01/21 00:47:36;;;;;;;37.40;21.53;;;0.90;78.20;;;;;;5037298;28;20073;-78
2023/01/21 00:50:03;;;;;;;34.77;19.10;;;1.20;78.40;;;;;;5020818;28;20123;-78
2023/01/21 00:52:29;;;;;;;43.60;21.60;;;0.80;78.20;;;;;;5037543;28;20041;-78
2023/01/21 00:54:54;;;;;;;35.03;21.13;;;0.80;78.30;;;;;;5037138;28;20098;-78
2023/01/21 00:57:20;;;;;;;41.97;20.83;;;0.70;78.30;;;;;;5020601;28;20033;-78
2023/01/21 00:59:46;;;;;;;40.90;21.00;;;0.70;78.50;;;;;;5036814;28;20411;-78
2023/01/21 01:02:12;;;;;;;36.77;20.40;;;0.70;78.70;;;;;;5020597;28;20087;-78
2023/01/21 01:04:37;;;;;;;40.87;21.43;;;0.60;78.90;;;;;;5036948;28;20036;-79
2023/01/21 01:07:03;;;;;;;38.93;20.10;;;0.60;79.20;;;;;;5020311;28;20061;-78
2023/01/21 01:09:29;;;;;;;39.67;22.30;;;0.60;79.30;;;;;;5036682;28;20127;-78
2023/01/21 01:11:55;;;;;;;39.83;20.43;;;0.50;79.40;;;;;;5037279;28;20052;-78
2023/01/21 01:14:21;;;;;;;41.63;21.57;;;0.50;79.70;;;;;;5053532;28;20037;-78
2023/01/21 01:16:48;;;;;;;39.10;19.93;;;0.40;79.70;;;;;;5020137;28;20078;-78
2023/01/21 01:19:14;;;;;;;42.27;21.13;;;0.60;80.00;;;;;;5036437;28;20128;-78
2023/01/21 01:21:39;;;;;;;41.97;21.90;;;0.40;80.00;;;;;;5020457;28;20123;-78
2023/01/21 01:24:05;;;;;;;39.00;21.27;;;0.40;80.20;;;;;;5036449;28;20495;-78
2023/01/21 01:26:34;;;;;;;38.20;21.10;;;0.40;80.20;;;;;;5016821;28;20049;-78
2023/01/21 01:29:00;;;;;;;48.00;22.30;;;0.40;80.40;;;;;;5020400;28;20048;-78
2023/01/21 01:31:26;;;;;;;40.20;21.67;;;0.40;80.50;;;;;;5053390;28;20041;-78
2023/01/21 01:33:51;;;;;;;40.20;20.97;;;0.40;80.60;;;;;;5036532;28;20554;-78
2023/01/21 01:36:24;;;;;;;39.43;20.87;;;0.40;80.70;;;;;;5019882;28;20068;-78
2023/01/21 01:38:50;;;;;;;41.03;22.80;;;0.40;80.90;;;;;;5036373;28;20037;-78
2023/01/21 01:41:28;;;;;;;40.67;22.03;;;0.30;81.00;;;;;;5036416;28;20041;-78
2023/01/21 01:44:01;;;;;;;45.33;23.43;;;0.40;81.30;;;;;;5035388;28;20037;-78
2023/01/21 01:46:32;;;;;;;42.63;22.97;;;0.40;81.30;;;;;;5036091;28;20033;-78
2023/01/21 01:49:11;;;;;;;43.47;23.23;;;0.40;81.40;;;;;;5036366;28;20049;-78
2023/01/21 01:51:47;;;;;;;44.63;23.70;;;0.40;81.40;;;;;;5036641;28;20052;-78
2023/01/21 01:54:18;;;;;;;53.27;25.93;;;0.40;81.50;;;;;;5055692;28;20468;-78
2023/01/21 01:56:49;;;;;;;46.97;24.83;;;0.40;81.50;;;;;;5051860;28;20041;-78
2023/01/21 01:59:15;;;;;;;46.50;24.50;;;0.40;81.40;;;;;;5035568;28;20037;-78
2023/01/21 02:01:41;;;;;;;51.37;25.57;;;0.40;81.40;;;;;;5052319;28;20124;-78
2023/01/21 02:04:12;;;;;;;47.40;25.97;;;0.50;81.60;;;;;;5052567;28;20119;-78
2023/01/21 02:06:39;;;;;;;45.50;24.53;;;0.50;81.60;;;;;;5035903;28;20692;-78
2023/01/21 02:09:07;;;;;;;49.53;25.57;;;0.50;81.70;;;;;;5052464;28;20083;-78
2023/01/21 02:11:35;;;;;;;48.67;25.30;;;0.50;81.80;;;;;;5052072;28;20124;-78
2023/01/21 02:14:02;;;;;;;49.57;26.07;;;0.50;81.80;;;;;;5024687;28;20072;-78
2023/01/21 02:16:45;;;;;;;45.03;24.10;;;0.50;81.80;;;;;;5035718;28;20037;-78
2023/01/21 02:19:41;;;;;;;47.20;24.93;;;0.80;82.10;;;;;;5051995;28;20037;-78
2023/01/21 02:22:20;;;;;;;39.73;21.00;;;0.50;82.10;;;;;;5052560;28;20098;-78
2023/01/21 02:25:24;;;;;;;40.83;23.30;;;0.60;82.20;;;;;;5052101;28;20045;-78
2023/01/21 02:27:58;;;;;;;44.87;24.00;;;0.60;82.30;;;;;;5035437;28;20048;-78
2023/01/21 02:30:49;;;;;;;39.67;22.77;;;0.60;82.30;;;;;;5035336;28;20053;-78
2023/01/21 02:33:37;;;;;;;38.23;20.70;;;0.70;82.40;;;;;;5035268;28;20041;-78
2023/01/21 02:36:22;;;;;;;49.40;24.93;;;0.70;82.40;;;;;;5035469;28;20041;-78
2023/01/21 02:39:02;;;;;;;45.67;24.67;;;0.70;82.50;;;;;;5035576;28;20115;-78
2023/01/21 02:41:36;;;;;;;43.90;22.63;;;0.80;82.90;;;;;;5035376;28;20048;-78
2023/01/21 02:44:13;;;;;;;40.08;22.83;;;0.80;82.30;;;;;;5035514;28;20049;-78
2023/01/21 02:46:48;;;;;;;40.10;21.10;;;0.80;82.20;;;;;;5035278;28;20083;-79
2023/01/21 02:49:22;;;;;;;46.28;24.85;;;0.80;82.20;;;;;;5035288;28;20380;-78
2023/01/21 02:51:48;;;;;;;44.67;25.67;;;0.80;82.20;;;;;;5035594;28;20400;-78
2023/01/21 02:54:34;;;;;;;46.57;26.27;;;0.90;82.10;;;;;;5051268;28;20048;-78
2023/01/21 02:57:01;;;;;;;47.30;24.50;;;0.90;81.90;;;;;;5034705;28;20033;-78
2023/01/21 02:59:27;;;;;;;43.10;25.20;;;0.90;81.70;;;;;;5035232;28;20392;-78
2023/01/21 03:02:27;;;;;;;47.13;25.83;;;0.80;81.50;;;;;;5034815;28;20036;-78
2023/01/21 03:05:02;;;;;;;48.60;25.70;;;0.80;81.30;;;;;;5052008;28;20365;-78
2023/01/21 03:07:35;;;;;;;48.07;25.33;;;0.80;81.10;;;;;;5031544;28;20063;-78
2023/01/21 03:10:13;;;;;;;44.03;24.80;;;0.80;81.00;;;;;;5050460;28;20045;-78
2023/01/21 03:12:51;;;;;;;48.00;26.77;;;0.70;80.90;;;;;;5034840;28;20120;-78
2023/01/21 03:18:21;;;;;;;52.40;26.33;;;0.70;80.90;;;;;;5051184;28;20621;-78
2023/01/21 03:20:54;;;;;;;57.83;27.93;;;0.60;80.90;;;;;;5051631;28;20109;-78
2023/01/21 03:23:25;;;;;;;51.13;25.37;;;0.60;80.90;;;;;;5034488;28;20507;-78
2023/01/21 03:25:52;;;;;;;53.37;26.27;;;0.50;81.00;;;;;;5035265;28;20480;-78
2023/01/21 03:28:21;;;;;;;58.23;26.57;;;0.50;81.00;;;;;;5018358;28;20471;-78
2023/01/21 03:30:54;;;;;;;63.17;29.70;;;0.50;81.20;;;;;;5051588;28;20060;-78
2023/01/21 03:33:21;;;;;;;58.13;26.33;;;0.70;81.40;;;;;;5034297;28;20495;-78
2023/01/21 03:35:49;;;;;;;69.33;27.83;;;0.40;81.40;;;;;;5034591;28;20037;-78
2023/01/21 03:38:18;;;;;;;56.30;26.57;;;0.30;81.50;;;;;;5034562;28;20407;-78
2023/01/21 03:41:00;;;;;;;60.20;27.97;;;0.30;81.70;;;;;;5050999;28;20087;-78
2023/01/21 03:43:26;;;;;;;59.23;27.50;;;0.30;81.90;;;;;;5034381;28;20103;-79
2023/01/21 03:46:04;;;;;;;54.83;26.33;;;0.30;82.10;;;;;;5034369;28;20040;-78
2023/01/21 03:49:01;;;;;;;54.77;25.77;;;0.30;82.30;;;;;;5051221;28;20126;-78
2023/01/21 03:51:33;;;;;;;62.90;25.73;;;0.30;82.40;;;;;;5031255;28;20129;-78
2023/01/21 03:53:59;;;;;;;54.47;24.27;;;0.30;82.30;;;;;;5030361;28;20048;-78
2023/01/21 03:56:25;;;;;;;54.87;26.37;;;0.30;82.40;;;;;;5034621;28;20048;-78
2023/01/21 03:58:51;;;;;;;56.40;25.67;;;0.30;82.50;;;;;;5050990;28;20040;-78
2023/01/21 04:01:17;;;;;;;53.57;24.53;;;0.70;82.80;;;;;;4998729;28;20038;-78
2023/01/21 04:03:43;;;;;;;57.30;24.73;;;0.30;82.70;;;;;;5034553;28;20419;-79
2023/01/21 04:06:20;;;;;;;55.17;22.73;;;0.30;82.80;;;;;;5035909;28;20057;-78
2023/01/21 04:08:46;;;;;;;55.17;24.00;;;0.20;82.90;;;;;;5054564;28;20120;-78
2023/01/21 04:11:12;;;;;;;52.97;22.80;;;0.20;83.00;;;;;;5038325;28;20087;-79
2023/01/21 04:13:37;;;;;;;59.07;23.47;;;0.30;83.20;;;;;;5054595;28;20044;-78
2023/01/21 04:16:03;;;;;;;56.70;24.13;;;0.30;83.30;;;;;;5005361;28;20051;-78
2023/01/21 04:18:29;;;;;;;53.60;23.77;;;0.20;83.40;;;;;;5054394;28;20029;-78
2023/01/21 04:20:55;;;;;;;57.37;25.03;;;0.30;83.60;;;;;;5038110;28;20045;-79
2023/01/21 04:23:20;;;;;;;56.60;23.13;;;0.50;83.90;;;;;;5021363;28;20033;-78
2023/01/21 04:25:47;;;;;;;58.00;24.23;;;0.30;83.80;;;;;;5021387;28;20060;-79
2023/01/21 04:28:13;;;;;;;59.43;24.13;;;0.20;83.90;;;;;;5037830;28;20045;-78
2023/01/21 04:30:39;;;;;;;59.33;23.30;;;0.30;84.10;;;;;;5037870;28;20365;-78
2023/01/21 04:33:05;;;;;;;58.83;23.23;;;0.60;84.40;;;;;;5020862;28;20175;-79
2023/01/21 04:35:30;;;;;;;58.73;24.70;;;0.40;84.30;;;;;;5021088;28;20077;-79
2023/01/21 04:37:56;;;;;;;56.80;22.37;;;0.40;84.40;;;;;;5037633;28;20487;-78
2023/01/21 04:40:22;;;;;;;51.30;21.67;;;0.40;84.50;;;;;;5020801;28;20033;-79
2023/01/21 04:42:47;;;;;;;55.63;24.37;;;0.40;84.60;;;;;;5037452;28;20036;-79
2023/01/21 04:45:13;;;;;;;62.73;24.13;;;0.50;84.80;;;;;;5037447;28;20178;-79
2023/01/21 04:47:43;;;;;;;56.70;23.73;;;0.50;84.90;;;;;;5004658;28;20373;-79
2023/01/21 04:50:10;;;;;;;50.70;22.73;;;0.50;85.00;;;;;;5053989;28;20039;-79
2023/01/21 04:52:36;;;;;;;49.03;21.80;;;0.60;85.10;;;;;;5037434;28;20051;-79
2023/01/21 04:55:02;;;;;;;55.60;23.90;;;0.60;85.20;;;;;;5037324;28;20510;-79
2023/01/21 04:57:28;;;;;;;56.00;24.63;;;0.70;85.40;;;;;;5054123;28;20041;-79
2023/01/21 04:59:54;;;;;;;49.77;21.87;;;0.70;85.40;;;;;;5037129;28;20510;-79
2023/01/21 05:02:19;;;;;;;47.00;21.77;;;0.80;85.50;;;;;;5020480;28;20044;-79
2023/01/21 05:04:45;;;;;;;51.90;23.20;;;0.80;85.50;;;;;;5053786;28;20400;-79
2023/01/21 05:07:11;;;;;;;56.33;24.37;;;0.80;85.50;;;;;;5020500;28;20052;-79
2023/01/21 05:09:36;;;;;;;50.50;22.73;;;0.90;85.60;;;;;;5037018;28;20467;-79
2023/01/21 05:12:03;;;;;;;49.40;22.87;;;0.90;85.60;;;;;;5020610;28;20095;-79
2023/01/21 05:14:29;;;;;;;53.03;23.30;;;1.00;85.60;;;;;;5004173;28;20087;-79
2023/01/21 05:16:54;;;;;;;46.37;21.63;;;1.00;85.60;;;;;;5020354;28;20073;-80
2023/01/21 05:19:20;;;;;;;48.77;21.93;;;1.10;85.60;;;;;;5017336;28;20442;-79
2023/01/21 05:21:46;;;;;;;47.57;21.57;;;1.10;85.60;;;;;;5020434;28;20577;-79
2023/01/21 05:24:11;;;;;;;44.57;22.10;;;1.10;85.50;;;;;;5037352;28;20047;-79
2023/01/21 05:26:37;;;;;;;43.90;21.23;;;1.20;85.50;;;;;;5036781;28;20722;-80
2023/01/21 05:29:03;;;;;;;45.43;21.03;;;1.30;85.50;;;;;;5020631;28;20049;-80
2023/01/21 05:31:28;;;;;;;41.33;21.13;;;1.30;85.40;;;;;;5037379;28;20426;-79
2023/01/21 05:33:56;;;;;;;44.90;20.27;;;1.70;85.50;;;;;;5056885;28;20044;-80
2023/01/21 05:36:22;;;;;;;43.70;21.97;;;1.30;85.20;;;;;;5073474;28;20589;-80
2023/01/21 05:38:48;;;;;;;42.70;20.17;;;1.40;85.50;;;;;;5056453;28;20097;-79
2023/01/21 05:41:13;;;;;;;43.30;20.53;;;1.40;85.00;;;;;;5040228;28;20123;-80
2023/01/21 05:43:39;;;;;;;41.50;19.30;;;1.50;84.90;;;;;;5037257;28;20037;-80
2023/01/21 05:46:05;;;;;;;43.67;19.87;;;1.50;84.80;;;;;;5003792;28;20037;-80
2023/01/21 05:48:31;;;;;;;44.80;22.17;;;1.80;84.90;;;;;;5036730;28;20400;-80
2023/01/21 05:50:57;;;;;;;48.37;21.77;;;1.50;84.60;;;;;;5036402;28;20048;-80
2023/01/21 05:53:24;;;;;;;40.77;20.40;;;1.50;84.50;;;;;;5036302;28;20036;-80
2023/01/21 05:55:53;;;;;;;39.93;21.27;;;1.60;84.40;;;;;;5036063;28;20373;-79
2023/01/21 05:58:20;;;;;;;42.90;21.00;;;2.10;84.70;;;;;;5036863;28;20059;-78
2023/01/21 06:00:47;;;;;;;39.50;20.63;;;1.60;84.20;;;;;;5036199;28;20096;-80
2023/01/21 06:03:14;;;;;;;45.40;22.13;;;1.80;84.20;;;;;;5032724;28;20481;-80
2023/01/21 06:05:40;;;;;;;37.23;19.53;;;1.60;83.90;;;;;;5050396;28;20057;-82
2023/01/21 06:08:07;;;;;;;35.00;19.70;;;1.70;83.90;;;;;;5036320;28;20055;-82
2023/01/21 06:10:33;;;;;;;40.27;20.60;;;1.70;83.80;;;;;;5019697;28;20041;-80
2023/01/21 06:12:58;;;;;;;45.33;22.73;;;1.70;83.70;;;;;;5016127;28;20052;-80
2023/01/21 06:15:24;;;;;;;48.40;23.27;;;1.70;83.50;;;;;;5052340;28;20037;-79
2023/01/21 06:17:54;;;;;;;45.33;22.20;;;1.70;83.40;;;;;;5035911;28;20072;-80
2023/01/21 06:20:19;;;;;;;42.20;20.43;;;1.70;83.10;;;;;;5052250;28;20116;-80
2023/01/21 06:22:45;;;;;;;39.10;20.73;;;1.60;82.80;;;;;;5035559;28;20146;-79
2023/01/21 06:25:11;;;;;;;41.23;19.83;;;2.20;83.10;;;;;;5035449;28;20455;-80
2023/01/21 06:27:37;;;;;;;41.17;20.13;;;1.70;82.80;;;;;;5035636;28;20040;-79
2023/01/21 06:30:05;;;;;;;41.60;21.30;;;1.60;82.70;;;;;;5032048;28;20124;-80
2023/01/21 06:32:31;;;;;;;42.90;21.43;;;1.60;82.70;;;;;;5041923;28;20396;-79
2023/01/21 06:34:57;;;;;;;44.43;22.23;;;1.60;82.70;;;;;;5052131;28;20639;-80
2023/01/21 06:37:23;;;;;;;41.23;20.67;;;1.60;82.70;;;;;;5035807;28;20037;-82
2023/01/21 06:39:48;;;;;;;45.73;22.77;;;1.60;82.80;;;;;;5018955;28;20090;-83
2023/01/21 06:42:16;;;;;;;51.10;23.97;;;1.70;82.90;;;;;;5051573;28;20082;-80
2023/01/21 06:44:45;;;;;;;42.17;20.70;;;1.90;83.00;;;;;;5035739;28;20045;-79
2023/01/21 06:47:11;;;;;;;39.33;20.80;;;1.70;82.80;;;;;;5019093;28;20045;-79
2023/01/21 06:49:37;;;;;;;44.40;22.13;;;1.70;82.80;;;;;;5016271;28;20178;-79
2023/01/21 06:52:03;;;;;;;40.80;20.50;;;1.70;82.80;;;;;;5018416;28;20404;-80
2023/01/21 06:54:29;;;;;;;43.03;21.23;;;1.70;82.80;;;;;;5051558;28;20048;-80
2023/01/21 06:56:55;;;;;;;50.17;24.30;;;1.70;82.80;;;;;;5035504;28;20107;-79
2023/01/21 06:59:20;;;;;;;40.47;21.00;;;1.80;82.90;;;;;;5034846;28;20564;-79
2023/01/21 07:01:46;;;;;;;41.73;21.07;;;1.80;82.80;;;;;;5018350;28;20037;-80
2023/01/21 07:04:12;;;;;;;41.60;20.93;;;1.80;82.70;;;;;;5035270;28;20467;-79
2023/01/21 07:06:37;;;;;;;41.37;22.23;;;1.80;82.70;;;;;;5035115;28;20056;-80
2023/01/21 07:09:04;;;;;;;44.07;22.50;;;1.90;82.70;;;;;;5015387;28;20542;-80
2023/01/21 07:11:31;;;;;;;43.63;22.50;;;1.90;82.70;;;;;;5028555;28;20041;-79
2023/01/21 07:13:57;;;;;;;41.60;21.00;;;1.80;82.60;;;;;;5031987;28;20384;-79
2023/01/21 07:16:22;;;;;;;39.13;20.83;;;1.90;82.60;;;;;;5031700;28;20050;-80
2023/01/21 07:18:48;;;;;;;36.40;19.50;;;1.90;82.60;;;;;;5013474;28;20079;-80
2023/01/21 07:21:14;;;;;;;35.93;20.30;;;1.90;82.50;;;;;;5001364;28;20453;-79
2023/01/21 07:23:40;;;;;;;37.27;20.77;;;1.90;82.50;;;;;;5015126;28;20083;-80
2023/01/21 07:26:06;;;;;;;42.23;21.70;;;2.00;82.60;;;;;;5015179;28;20046;-80
2023/01/21 07:28:32;;;;;;;42.83;21.10;;;1.90;82.40;;;;;;5012621;28;20374;-79
2023/01/21 07:30:58;;;;;;;41.63;21.87;;;2.00;82.20;;;;;;5034851;28;20048;-79
2023/01/21 07:33:24;;;;;;;38.87;20.90;;;2.00;82.10;;;;;;5035150;28;20392;-80
2023/01/21 07:35:50;;;;;;;39.33;21.37;;;1.90;82.10;;;;;;5014856;28;20041;-79
2023/01/21 07:38:16;;;;;;;37.50;20.00;;;2.20;82.30;;;;;;5018521;28;20041;-79
2023/01/21 07:40:42;;;;;;;38.43;20.77;;;2.10;82.20;;;;;;5019099;28;20070;-79
2023/01/21 07:43:08;;;;;;;39.37;21.53;;;2.00;82.20;;;;;;5022361;28;20033;-79
2023/01/21 07:45:34;;;;;;;44.87;22.10;;;2.10;82.20;;;;;;5038707;28;20041;-80
2023/01/21 07:48:00;;;;;;;40.80;22.00;;;2.00;82.10;;;;;;5022315;28;20051;-83
2023/01/21 07:50:26;;;;;;;43.73;22.70;;;2.00;82.10;;;;;;5022516;28;20043;-82
2023/01/21 07:52:58;;;;;;;47.07;22.93;;;2.10;82.20;;;;;;5055507;28;20519;-82
2023/01/21 07:55:24;;;;;;;51.60;24.95;;;2.30;82.30;;;;;;5039453;28;20045;-83
2023/01/21 07:57:50;;;;;;;46.63;24.77;;;2.10;82.10;;;;;;5038951;28;20177;-83
2023/01/21 08:00:17;;;;;;;45.10;22.60;;;2.60;82.30;;;;;;5038865;28;20036;-82
2023/01/21 08:02:42;;;;;;;47.67;23.83;;;2.20;81.90;;;;;;5039283;28;20047;-82
2023/01/21 08:05:09;;;;;;;44.70;23.07;;;2.20;81.90;;;;;;5039218;28;20462;-83
2023/01/21 08:07:35;;;;;;;45.70;23.27;;;2.20;81.90;;;;;;5038707;28;20098;-82
2023/01/21 08:10:01;;;;;;;42.60;21.50;;;2.40;82.00;;;;;;5038552;28;20476;-83
2023/01/21 08:12:27;;;;;;;42.37;22.80;;;2.20;81.80;;;;;;5018233;28;20095;-83
2023/01/21 08:14:53;;;;;;;50.40;25.83;;;2.30;81.90;;;;;;5035002;28;20041;-82
2023/01/21 08:17:19;;;;;;;47.97;24.73;;;2.30;81.90;;;;;;5018311;28;20033;-83
2023/01/21 08:19:44;;;;;;;51.33;26.07;;;2.30;81.90;;;;;;5018661;28;20045;-82
2023/01/21 08:22:10;;;;;;;49.83;26.43;;;2.30;81.70;;;;;;5038303;28;20504;-83
2023/01/21 08:24:36;;;;;;;51.70;26.73;;;2.20;81.60;;;;;;5038561;28;20045;-83
2023/01/21 08:27:01;;;;;;;47.57;25.07;;;2.30;81.60;;;;;;5038513;28;20044;-83
2023/01/21 08:29:28;;;;;;;49.77;24.60;;;2.30;81.50;;;;;;5018441;28;20037;-82
2023/01/21 08:31:54;;;;;;;45.97;24.93;;;2.60;81.70;;;;;;5019712;28;20049;-83
2023/01/21 08:34:20;;;;;;;51.00;26.73;;;2.30;81.40;;;;;;5038085;28;20439;-83
2023/01/21 08:36:45;;;;;;;50.97;25.70;;;2.40;81.50;;;;;;5037926;28;20399;-83
2023/01/21 08:39:12;;;;;;;46.15;26.00;;;2.40;81.40;;;;;;5054678;28;20080;-83
2023/01/21 08:41:39;;;;;;;48.70;25.80;;;2.40;81.30;;;;;;5021751;28;20366;-83
2023/01/21 08:44:05;;;;;;;50.30;26.02;;;2.40;81.70;;;;;;5038325;28;20391;-83
2023/01/21 08:46:31;;;;;;;53.30;28.23;;;2.40;81.20;;;;;;5017777;28;20033;-84
2023/01/21 08:48:57;;;;;;;50.07;27.07;;;2.80;81.40;;;;;;5049607;28;20128;-82
2023/01/21 08:51:23;;;;;;;46.17;24.57;;;2.40;81.10;;;;;;5020317;28;20071;-83
2023/01/21 08:53:49;;;;;;;51.43;27.27;;;2.40;81.00;;;;;;5037951;28;20095;-83
2023/01/21 08:56:16;;;;;;;53.83;27.40;;;2.70;81.10;;;;;;5053873;28;20507;-82
2023/01/21 08:58:42;;;;;;;51.17;27.73;;;2.40;80.80;;;;;;5054469;28;20392;-83
2023/01/21 09:01:10;;;;;;;52.83;26.70;;;2.40;80.70;;;;;;5053919;28;20029;-83
2023/01/21 09:03:36;;;;;;;55.63;29.07;;;2.50;80.80;;;;;;5037836;28;20447;-82
2023/01/21 09:06:04;;;;;;;57.10;28.87;;;2.50;80.80;;;;;;5037234;28;20132;-82
2023/01/21 09:08:29;;;;;;;48.50;27.53;;;2.50;80.70;;;;;;5053974;28;20565;-83
2023/01/21 09:10:59;;;;;;;43.77;24.03;;;2.50;80.60;;;;;;5036927;28;20049;-82
2023/01/21 09:13:29;;;;;;;42.90;24.33;;;2.50;80.50;;;;;;5036946;28;20041;-82
2023/01/21 09:15:55;;;;;;;41.60;22.27;;;2.50;80.40;;;;;;5053926;28;20041;-81
2023/01/21 09:18:21;;;;;;;41.53;21.77;;;2.90;80.70;;;;;;5054330;28;20120;-82
2023/01/21 09:20:47;;;;;;;43.87;22.70;;;2.50;80.40;;;;;;5037116;28;20137;-81
2023/01/21 09:23:25;;;;;;;38.47;20.23;;;2.50;80.50;;;;;;5020991;28;20040;-81
2023/01/21 09:25:59;;;;;;;38.80;21.37;;;2.60;80.40;;;;;;5053849;28;20416;-81
2023/01/21 09:28:25;;;;;;;53.30;18.77;;;2.50;80.30;;;;;;5036914;28;20051;-81
2023/01/21 09:30:59;;;;;;;33.90;18.87;;;2.50;80.30;;;;;;5016989;28;20038;-81
2023/01/21 09:33:26;;;;;;;33.90;19.65;;;2.50;80.20;;;;;;5033809;28;20431;-81
2023/01/21 09:35:56;;;;;;;30.83;18.33;;;2.70;80.20;;;;;;5033310;28;20041;-81
2023/01/21 09:38:23;;;;;;;32.07;18.40;;;2.50;80.00;;;;;;5033579;28;20121;-81
2023/01/21 09:40:49;;;;;;;31.53;18.47;;;2.50;79.90;;;;;;5033582;28;20041;-81
2023/01/21 09:43:27;;;;;;;33.97;19.57;;;2.50;79.90;;;;;;5035974;28;20052;-82
2023/01/21 09:45:57;;;;;;;32.03;17.60;;;2.50;79.90;;;;;;5036659;28;20045;-81
2023/01/21 09:48:36;;;;;;;30.93;16.60;;;2.50;79.80;;;;;;5052839;28;20041;-81
2023/01/21 09:51:12;;;;;;;35.63;15.17;;;2.50;79.70;;;;;;5053250;28;20052;-81
2023/01/21 09:53:53;;;;;;;22.23;14.53;;;2.50;79.70;;;;;;5047727;28;20073;-81
2023/01/21 09:56:29;;;;;;;25.87;14.70;;;2.50;79.60;;;;;;5052760;28;20087;-80
2023/01/21 09:59:07;;;;;;;22.90;13.27;;;2.50;79.70;;;;;;5052927;28;20123;-80
2023/01/21 10:01:37;;;;;;;24.30;13.50;;;2.50;79.70;;;;;;5051975;28;20041;-81
2023/01/21 10:04:40;;;;;;;24.23;14.10;;;2.50;79.60;;;;;;5033173;28;20067;-81
2023/01/21 10:07:14;;;;;;;23.67;14.03;;;2.50;79.60;;;;;;5050589;28;20060;-81
2023/01/21 10:09:52;;;;;;;23.88;14.98;;;2.60;79.70;;;;;;5035974;28;20395;-81
2023/01/21 10:12:47;;;;;;;21.57;14.13;;;2.50;79.50;;;;;;5052197;28;20043;-81
2023/01/21 10:15:28;;;;;;;;;;;2.50;79.50;;;;;;5036402;28;20049;-81
2023/01/21 10:17:59;;;;;;;24.17;14.40;;;2.50;79.30;;;;;;5052452;28;19917;-81
2023/01/21 10:20:37;;;;;;;25.20;15.10;;;2.50;79.60;;;;;;5052980;28;20395;-81
2023/01/21 10:23:16;;;;;;;21.40;13.63;;;2.50;79.50;;;;;;5052623;28;20500;-82
2023/01/21 10:25:45;;;;;;;19.77;13.37;;;2.50;79.40;;;;;;5052793;28;20373;-81
2023/01/21 10:28:27;;;;;;;32.23;13.43;;;2.50;79.10;;;;;;5052429;28;20041;-82
2023/01/21 10:31:29;;;;;;;31.73;14.67;;;2.40;78.80;;;;;;5036161;28;20429;-81
2023/01/21 10:33:55;;;;;;;23.60;14.60;;;2.40;78.70;;;;;;5052356;28;20051;-82
2023/01/21 10:36:27;;;;;;;28.53;14.30;;;2.40;78.60;;;;;;5035773;28;20041;-83
2023/01/21 10:39:06;;;;;;;27.60;14.20;;;2.30;78.60;;;;;;5035751;28;20099;-82
2023/01/21 10:41:55;;;;;;;23.07;14.63;;;2.30;78.70;;;;;;5052339;28;20033;-82
2023/01/21 10:44:23;;;;;;;26.63;14.67;;;2.20;78.90;;;;;;5035668;28;20075;-81
2023/01/21 10:47:15;;;;;;;21.33;14.63;;;2.20;79.10;;;;;;5051966;28;20116;-81
2023/01/21 10:49:50;;;;;;;42.10;14.33;;;2.30;79.30;;;;;;5030005;28;20049;-81
2023/01/21 10:52:45;;;;;;;25.08;14.63;;;2.30;79.40;;;;;;5032503;28;20128;-82
2023/01/21 10:55:26;;;;;;;23.02;15.02;;;2.20;79.20;;;;;;5035490;28;20381;-82
2023/01/21 10:58:04;;;;;;;24.27;15.37;;;2.20;79.40;;;;;;5051810;28;20493;-82
2023/01/21 11:00:41;;;;;;;23.37;15.17;;;2.20;79.50;;;;;;5035304;28;20036;-82
2023/01/21 11:03:13;;;;;;;26.17;15.17;;;2.50;79.70;;;;;;5015541;28;20042;-81
2023/01/21 11:05:39;;;;;;;22.47;14.80;;;2.30;79.60;;;;;;5050841;28;20551;-81
2023/01/21 11:08:06;;;;;;;23.67;15.00;;;2.30;79.60;;;;;;5015527;28;20056;-82
2023/01/21 11:10:32;;;;;;;28.00;14.97;;;2.30;79.60;;;;;;5034303;28;20037;-81
2023/01/21 11:12:58;;;;;;;19.40;13.20;;;2.50;79.70;;;;;;5034587;28;20044;-82
2023/01/21 11:15:24;;;;;;;18.00;13.37;;;2.30;79.60;;;;;;5051127;28;20060;-80
2023/01/21 11:17:55;;;;;;;23.07;14.27;;;2.40;79.70;;;;;;5032160;28;20033;-80
2023/01/21 11:20:34;;;;;;;20.87;14.17;;;2.50;79.70;;;;;;5047378;28;20033;-80
2023/01/21 11:23:03;;;;;;;26.60;14.30;;;2.40;79.60;;;;;;5035674;28;20041;-80
2023/01/21 11:25:36;;;;;;;24.77;13.43;;;2.40;79.40;;;;;;5051524;28;20076;-80
2023/01/21 11:28:04;;;;;;;74.30;15.87;;;2.40;79.40;;;;;;5035026;28;20465;-80
2023/01/21 11:30:37;;;;;;;22.70;13.30;;;2.50;79.50;;;;;;5051386;28;20054;-81
2023/01/21 11:33:25;;;;;;;21.63;13.60;;;2.40;79.10;;;;;;5034865;28;20047;-80
2023/01/21 11:35:53;;;;;;;24.27;13.43;;;2.50;79.20;;;;;;5050976;28;20361;-76
2023/01/21 11:38:32;;;;;;;22.30;14.60;;;2.40;79.30;;;;;;5051081;28;20040;-76
2023/01/21 11:41:05;;;;;;;21.00;12.77;;;2.40;79.50;;;;;;5050212;28;20048;-76
2023/01/21 11:43:38;;;;;;;19.97;12.77;;;2.40;79.20;;;;;;5036924;28;20098;-75
2023/01/21 11:46:37;;;;;;;20.17;13.55;;;2.40;79.30;;;;;;5050997;28;20396;-76
2023/01/21 11:49:06;;;;;;;19.83;12.47;;;2.50;79.50;;;;;;4991136;28;20128;-76
2023/01/21 11:51:33;;;;;;;22.43;13.80;;;2.40;79.70;;;;;;5034619;28;20439;-75
2023/01/21 11:54:19;;;;;;;20.77;13.10;;;2.40;79.80;;;;;;5033859;28;20043;-76
2023/01/21 11:57:19;;;;;;;21.87;14.57;;;2.50;79.90;;;;;;5033581;28;20052;-76
2023/01/21 11:59:47;;;;;;;24.93;14.70;;;2.50;80.00;;;;;;5026398;28;20570;-80
2023/01/21 12:02:15;;;;;;;20.23;13.63;;;2.50;80.00;;;;;;5051210;28;20115;-80
2023/01/21 12:05:10;;;;;;;20.93;13.73;;;2.50;80.00;;;;;;5049517;28;20033;-80
2023/01/21 12:07:40;;;;;;;28.65;16.02;;;2.60;80.10;;;;;;5050253;28;20471;-80
2023/01/21 12:10:11;;;;;;;24.47;15.27;;;2.60;80.10;;;;;;5051453;28;20052;-80
2023/01/21 12:13:25;;;;;;;23.30;14.97;;;2.60;80.10;;;;;;5050737;28;20064;-76
2023/01/21 12:16:17;;;;;;;23.43;14.73;;;2.70;80.20;;;;;;5000394;28;20437;-77
2023/01/21 12:18:58;;;;;;;22.47;14.07;;;2.70;80.20;;;;;;5041778;28;20539;-77
2023/01/21 12:21:45;;;;;;;25.07;15.83;;;2.70;80.10;;;;;;5048617;28;20044;-78
2023/01/21 12:24:36;;;;;;;26.77;15.47;;;2.70;79.90;;;;;;5033886;28;20033;-75
2023/01/21 12:27:31;;;;;;;25.67;14.87;;;2.70;79.90;;;;;;5039571;28;20511;-75
2023/01/21 12:30:13;;;;;;;24.57;15.37;;;2.80;80.10;;;;;;5036805;28;20040;-80
2023/01/21 12:32:47;;;;;;;24.07;15.83;;;2.80;80.00;;;;;;5053253;28;20047;-80
2023/01/21 12:35:27;;;;;;;30.50;17.00;;;2.80;79.90;;;;;;5054435;28;20041;-80
2023/01/21 12:38:09;;;;;;;31.20;17.77;;;2.80;79.90;;;;;;5053518;28;20073;-82
2023/01/21 12:40:40;;;;;;;30.73;18.73;;;2.80;79.90;;;;;;5054117;28;20084;-80
2023/01/21 12:43:15;;;;;;;29.97;18.83;;;2.80;79.70;;;;;;5053908;28;20514;-80
2023/01/21 12:45:51;;;;;;;33.92;19.58;;;2.80;79.70;;;;;;5037610;28;20049;-85
2023/01/21 12:48:30;;;;;;;31.57;20.83;;;3.00;79.90;;;;;;5037656;28;20430;-75
2023/01/21 12:51:03;;;;;;;30.90;19.83;;;2.80;79.80;;;;;;5046081;28;20078;-79
2023/01/21 12:53:38;;;;;;;39.67;20.02;;;2.70;79.80;;;;;;5050190;28;20041;-80
2023/01/21 12:56:19;;;;;;;33.45;20.05;;;2.70;80.00;;;;;;5061814;28;20110;-80
2023/01/21 12:59:13;;;;;;;35.50;21.02;;;2.70;79.90;;;;;;5067493;28;20045;-79